Time;durP1;ratioP1;P1;durP2;ratioP2;P2;SDS_P1;SDS_P2;PMS_P1;PMS_P2;Temp;Humidity;BMP_temperature;BMP_pressure;BME280_temperature;BME280_humidity;BME280_pressure;Samples;Min_cycle;Max_cycle;Signal;HPM_P1;HPM_P2
2022/05/25 00:00:25;;;;;;;9.27;7.78;;;10.40;99.90;;;;;;5093799;28;20432;-63
2022/05/25 00:02:51;;;;;;;8.45;7.55;;;10.40;99.90;;;;;;5082851;28;20039;-63
2022/05/25 00:05:17;;;;;;;9.35;7.50;;;10.30;99.90;;;;;;5079383;28;20037;-63
2022/05/25 00:07:43;;;;;;;7.57;6.78;;;10.40;99.90;;;;;;5087611;28;20039;-63
2022/05/25 00:10:09;;;;;;;8.98;6.90;;;10.30;99.90;;;;;;5080940;28;20040;-63
2022/05/25 00:12:35;;;;;;;9.70;7.50;;;10.20;99.90;;;;;;5090414;28;20111;-63
2022/05/25 00:15:01;;;;;;;9.23;7.95;;;10.20;99.90;;;;;;5093468;28;20165;-63
2022/05/25 00:17:27;;;;;;;9.07;8.10;;;10.10;99.90;;;;;;5093100;28;20039;-63
2022/05/25 00:20:01;;;;;;;8.75;7.85;;;10.10;99.90;;;;;;5087534;28;20032;-63
2022/05/25 00:22:39;;;;;;;9.18;7.43;;;10.10;99.90;;;;;;5089130;28;20039;-63
2022/05/25 00:25:05;;;;;;;11.90;8.50;;;10.10;99.90;;;;;;5093248;28;20040;-63
2022/05/25 00:27:31;;;;;;;10.60;8.35;;;10.10;99.90;;;;;;5078034;28;20044;-63
2022/05/25 00:29:57;;;;;;;11.05;9.43;;;10.00;99.90;;;;;;5087002;28;20040;-63
2022/05/25 00:32:22;;;;;;;11.35;9.23;;;10.00;99.90;;;;;;5093089;28;20173;-62
2022/05/25 00:34:48;;;;;;;11.48;9.00;;;10.00;99.90;;;;;;5091962;28;20085;-63
2022/05/25 00:37:13;;;;;;;10.73;9.05;;;10.00;99.90;;;;;;5086368;28;20036;-63
2022/05/25 00:39:40;;;;;;;11.18;8.88;;;10.00;99.90;;;;;;5085257;28;20542;-63
2022/05/25 00:42:06;;;;;;;9.65;7.22;;;10.00;99.90;;;;;;5092947;28;20036;-63
2022/05/25 00:44:31;;;;;;;8.05;7.00;;;9.90;99.90;;;;;;5086097;28;20034;-63
2022/05/25 00:46:57;;;;;;;10.65;6.80;;;9.80;99.90;;;;;;5092890;28;20044;-63
2022/05/25 00:49:27;;;;;;;11.07;8.20;;;9.80;99.90;;;;;;5092782;28;20076;-63
2022/05/25 00:51:56;;;;;;;10.05;8.77;;;9.80;99.90;;;;;;5090303;28;20047;-63
2022/05/25 00:54:49;;;;;;;10.15;8.60;;;9.90;99.90;;;;;;5081879;28;20032;-63
2022/05/25 00:57:19;;;;;;;11.00;8.60;;;9.90;99.90;;;;;;5082569;28;20123;-63
2022/05/25 01:00:00;;;;;;;11.38;8.75;;;9.90;99.90;;;;;;5088149;28;20040;-62
2022/05/25 01:02:28;;;;;;;11.10;9.07;;;9.90;99.90;;;;;;5088588;28;20071;-63
2022/05/25 01:04:53;;;;;;;12.15;9.48;;;9.90;99.90;;;;;;5092577;28;20046;-63
2022/05/25 01:07:41;;;;;;;10.63;9.10;;;10.00;99.90;;;;;;5092142;28;20111;-63
2022/05/25 01:10:33;;;;;;;12.88;10.55;;;9.90;99.90;;;;;;5082016;28;20130;-62
2022/05/25 01:13:24;;;;;;;13.02;9.93;;;9.90;99.90;;;;;;5086268;28;20085;-63
2022/05/25 01:16:17;;;;;;;13.15;9.80;;;9.80;99.90;;;;;;5070130;28;20055;-62
2022/05/25 01:19:07;;;;;;;11.80;9.85;;;9.80;99.90;;;;;;5082073;28;20056;-63
2022/05/25 01:22:00;;;;;;;10.73;8.60;;;9.80;99.90;;;;;;5090985;28;20503;-63
2022/05/25 01:24:35;;;;;;;12.60;8.60;;;9.80;99.90;;;;;;5092238;28;20403;-63
2022/05/25 01:27:36;;;;;;;10.45;8.73;;;9.70;99.90;;;;;;5076829;28;20036;-63
2022/05/25 01:30:04;;;;;;;10.85;7.65;;;9.60;99.90;;;;;;5086119;28;20118;-63
2022/05/25 01:32:45;;;;;;;10.77;7.88;;;9.60;99.90;;;;;;5085535;28;20046;-63
2022/05/25 01:35:28;;;;;;;10.55;8.52;;;9.50;99.90;;;;;;5071689;28;20400;-63
2022/05/25 01:38:00;;;;;;;11.63;9.70;;;9.50;99.90;;;;;;5085423;28;20122;-63
2022/05/25 01:40:49;;;;;;;11.00;9.02;;;9.40;99.90;;;;;;5090482;28;20040;-63
2022/05/25 01:43:23;;;;;;;12.02;9.60;;;9.40;99.90;;;;;;5080449;28;20032;-62
2022/05/25 01:45:55;;;;;;;12.45;9.43;;;9.40;99.90;;;;;;5091761;28;20515;-63
2022/05/25 01:48:22;;;;;;;13.80;10.70;;;9.30;99.90;;;;;;5091662;28;20496;-63
2022/05/25 01:50:53;;;;;;;14.80;10.15;;;9.30;99.90;;;;;;5077685;28;20165;-63
2022/05/25 01:53:22;;;;;;;11.93;9.85;;;9.30;99.90;;;;;;5088521;28;20082;-63
2022/05/25 01:55:58;;;;;;;14.52;10.63;;;9.20;99.90;;;;;;5091787;28;20444;-63
2022/05/25 01:58:26;;;;;;;11.32;9.20;;;9.20;99.90;;;;;;5091856;28;20043;-63
2022/05/25 02:00:57;;;;;;;14.98;10.02;;;9.10;99.90;;;;;;5086894;28;20593;-63
2022/05/25 02:06:19;;;;;;;9.05;7.60;;;9.00;99.90;;;;;;5084956;28;20106;-63
2022/05/25 02:09:06;;;;;;;10.93;7.82;;;8.90;99.90;;;;;;5088507;28;20051;-62
2022/05/25 02:11:42;;;;;;;10.02;7.30;;;8.80;99.90;;;;;;5090398;28;20047;-63
2022/05/25 02:14:27;;;;;;;10.68;7.60;;;8.70;99.90;;;;;;5084462;28;20089;-63
2022/05/25 02:17:08;;;;;;;8.73;7.32;;;8.60;99.90;;;;;;5084024;28;20492;-63
2022/05/25 02:20:01;;;;;;;9.80;7.65;;;8.50;99.90;;;;;;5090682;28;20508;-63
2022/05/25 02:22:51;;;;;;;10.43;7.18;;;8.50;99.90;;;;;;5075885;28;20076;-63
2022/05/25 02:25:42;;;;;;;9.93;7.10;;;8.40;99.90;;;;;;5087406;28;20032;-63
2022/05/25 02:28:20;;;;;;;12.77;9.48;;;8.50;99.90;;;;;;5091191;28;20044;-63
2022/05/25 02:30:51;;;;;;;16.15;11.95;;;8.50;99.90;;;;;;5090861;28;20028;-63
2022/05/25 02:33:23;;;;;;;16.27;12.57;;;8.50;99.90;;;;;;5074925;28;20040;-64
2022/05/25 02:35:49;;;;;;;17.80;12.18;;;8.60;99.90;;;;;;5084644;28;20065;-63
2022/05/25 02:38:15;;;;;;;20.17;13.15;;;8.50;99.90;;;;;;5090011;28;20043;-63
2022/05/25 02:40:41;;;;;;;16.75;13.13;;;8.60;99.90;;;;;;5083377;28;20122;-63
2022/05/25 02:43:08;;;;;;;17.45;13.40;;;8.60;99.90;;;;;;5090658;28;20507;-63
2022/05/25 02:45:36;;;;;;;17.25;13.70;;;8.60;99.90;;;;;;5090859;28;20492;-62
2022/05/25 02:48:01;;;;;;;17.83;13.55;;;8.60;99.90;;;;;;5091247;28;20048;-63
2022/05/25 02:50:27;;;;;;;19.40;13.88;;;8.70;99.90;;;;;;5082979;28;20047;-63
2022/05/25 02:52:53;;;;;;;17.15;13.57;;;8.70;99.90;;;;;;5090596;28;20491;-63
2022/05/25 02:55:19;;;;;;;18.77;13.32;;;8.70;99.90;;;;;;5090946;28;20453;-63
2022/05/25 02:57:44;;;;;;;18.27;13.45;;;8.70;99.90;;;;;;5075263;28;20434;-63
2022/05/25 03:00:11;;;;;;;19.02;14.13;;;8.80;99.90;;;;;;5084971;28;20055;-62
2022/05/25 03:02:37;;;;;;;19.50;14.82;;;8.80;99.90;;;;;;5090967;28;20128;-63
2022/05/25 03:05:05;;;;;;;19.30;14.93;;;8.80;99.90;;;;;;5086248;28;20115;-63
2022/05/25 03:07:31;;;;;;;20.98;14.95;;;8.80;99.90;;;;;;5090184;28;20181;-62
2022/05/25 03:09:56;;;;;;;24.38;16.85;;;8.80;99.90;;;;;;5090358;28;20186;-63
2022/05/25 03:12:22;;;;;;;24.10;15.80;;;8.80;99.90;;;;;;5086890;28;20055;-62
2022/05/25 03:14:48;;;;;;;32.92;16.90;;;8.80;99.90;;;;;;5074708;28;20043;-63
2022/05/25 03:17:14;;;;;;;23.08;16.45;;;8.80;99.90;;;;;;5093554;28;20097;-63
2022/05/25 03:19:49;;;;;;;22.75;16.30;;;8.80;99.90;;;;;;5094232;28;20118;-63
2022/05/25 03:22:14;;;;;;;24.38;17.25;;;8.80;99.90;;;;;;5081974;28;20081;-62
2022/05/25 03:24:40;;;;;;;26.52;17.42;;;8.90;99.90;;;;;;5094009;28;20036;-63
2022/05/25 03:27:06;;;;;;;28.00;17.30;;;8.90;99.90;;;;;;5093134;28;20122;-63
2022/05/25 03:29:32;;;;;;;23.42;16.58;;;8.90;99.90;;;;;;5086373;28;20102;-63
2022/05/25 03:31:58;;;;;;;25.70;16.67;;;8.90;99.90;;;;;;5084430;28;20080;-63
2022/05/25 03:34:24;;;;;;;24.23;16.63;;;8.90;99.90;;;;;;5093966;28;20083;-63
2022/05/25 03:36:52;;;;;;;27.02;17.92;;;8.90;99.90;;;;;;5089769;28;20063;-63
2022/05/25 03:39:18;;;;;;;28.38;17.85;;;8.90;99.90;;;;;;5083958;28;20036;-63
2022/05/25 03:41:44;;;;;;;26.00;17.27;;;8.90;99.90;;;;;;5093719;28;20472;-63
2022/05/25 03:44:11;;;;;;;28.23;18.35;;;8.90;99.90;;;;;;5091464;28;20073;-63
2022/05/25 03:46:37;;;;;;;29.80;17.30;;;8.90;99.90;;;;;;5074214;28;20424;-63
2022/05/25 03:49:02;;;;;;;27.92;18.85;;;8.90;99.90;;;;;;5083037;28;20514;-63
2022/05/25 03:51:28;;;;;;;32.53;18.60;;;8.90;99.90;;;;;;5093551;28;20051;-62
2022/05/25 03:53:53;;;;;;;30.15;19.50;;;9.00;99.90;;;;;;5087991;28;20029;-63
2022/05/25 03:56:19;;;;;;;28.83;19.05;;;9.00;99.90;;;;;;5083534;28;20040;-63
2022/05/25 03:58:46;;;;;;;34.08;19.73;;;9.00;99.90;;;;;;5092091;28;20043;-62
2022/05/25 04:01:12;;;;;;;36.75;21.65;;;9.00;99.90;;;;;;5093998;28;20062;-63
2022/05/25 04:03:37;;;;;;;32.55;20.60;;;9.10;99.90;;;;;;5079752;28;20040;-62
2022/05/25 04:06:03;;;;;;;32.85;21.50;;;9.10;99.90;;;;;;5080657;28;20036;-63
2022/05/25 04:08:28;;;;;;;29.77;19.67;;;9.10;99.90;;;;;;5092980;28;20050;-63
2022/05/25 04:10:54;;;;;;;34.85;20.35;;;9.10;99.90;;;;;;5076263;28;20049;-63
2022/05/25 04:13:21;;;;;;;34.20;20.90;;;9.20;99.90;;;;;;5090774;28;20072;-63
2022/05/25 04:15:46;;;;;;;33.15;19.63;;;9.20;99.90;;;;;;5091735;28;20036;-62
2022/05/25 04:18:12;;;;;;;33.45;20.20;;;9.30;99.90;;;;;;5087167;28;20089;-62
2022/05/25 04:20:37;;;;;;;36.40;21.60;;;9.30;99.90;;;;;;5072582;28;20028;-63
2022/05/25 04:23:07;;;;;;;36.83;21.95;;;9.40;99.90;;;;;;5090149;28;20047;-63
2022/05/25 04:25:33;;;;;;;32.83;20.40;;;9.40;99.90;;;;;;5093315;28;20500;-63
2022/05/25 04:27:59;;;;;;;35.00;20.15;;;9.40;99.90;;;;;;5093170;28;20071;-63
2022/05/25 04:30:27;;;;;;;34.15;20.88;;;9.50;99.90;;;;;;5080151;28;20032;-63
2022/05/25 04:32:53;;;;;;;37.03;22.10;;;9.60;99.90;;;;;;5091763;28;20571;-62
2022/05/25 04:35:19;;;;;;;34.13;21.70;;;9.60;99.90;;;;;;5093223;28;20059;-63
2022/05/25 04:37:53;;;;;;;34.22;19.75;;;9.70;99.90;;;;;;5080616;28;20396;-62
2022/05/25 04:40:31;;;;;;;33.95;20.75;;;9.70;99.90;;;;;;5088491;28;20055;-63
2022/05/25 04:42:59;;;;;;;34.22;20.92;;;9.80;99.90;;;;;;5086906;28;20082;-63
2022/05/25 04:45:26;;;;;;;38.38;21.85;;;9.80;99.90;;;;;;5091679;28;20131;-62
2022/05/25 04:47:52;;;;;;;36.80;22.08;;;9.80;99.90;;;;;;5093139;28;20043;-63
2022/05/25 04:50:20;;;;;;;35.67;21.42;;;9.90;99.90;;;;;;5092407;28;20040;-63
2022/05/25 04:52:46;;;;;;;33.70;20.58;;;10.00;99.90;;;;;;5080257;28;20037;-63
2022/05/25 04:57:19;;;;;;;34.45;21.17;;;10.00;99.90;;;;;;5080279;28;20033;-64
2022/05/25 04:58:00;;;;;;;34.08;20.77;;;10.10;99.90;;;;;;5074374;28;20040;-63
2022/05/25 05:00:27;;;;;;;36.78;21.30;;;10.20;99.90;;;;;;5079170;28;20107;-63
2022/05/25 05:02:53;;;;;;;33.42;20.92;;;10.20;99.90;;;;;;5091353;28;20055;-63
2022/05/25 05:05:19;;;;;;;38.10;21.58;;;10.30;99.90;;;;;;5091276;28;20043;-63
2022/05/25 05:07:45;;;;;;;35.58;21.05;;;10.40;99.90;;;;;;5092256;28;20036;-62
2022/05/25 05:10:12;;;;;;;35.08;19.92;;;10.50;99.90;;;;;;5078967;28;20048;-63
2022/05/25 05:12:39;;;;;;;35.75;21.10;;;10.50;99.90;;;;;;5090016;28;20028;-62
2022/05/25 05:15:05;;;;;;;33.20;19.73;;;10.60;99.90;;;;;;5092019;28;20035;-63
2022/05/25 05:17:31;;;;;;;31.58;19.83;;;10.70;99.90;;;;;;5084032;28;20029;-61
2022/05/25 05:19:56;;;;;;;34.17;21.48;;;10.70;99.90;;;;;;5077398;28;20534;-63
2022/05/25 05:22:22;;;;;;;33.42;20.20;;;10.80;99.90;;;;;;5080614;28;20430;-65
2022/05/25 05:24:48;;;;;;;36.42;22.65;;;10.90;99.90;;;;;;5089998;28;20047;-63
2022/05/25 05:27:14;;;;;;;36.60;20.63;;;11.00;99.90;;;;;;5080761;28;20051;-63
2022/05/25 05:29:39;;;;;;;33.45;21.88;;;11.10;99.90;;;;;;5087313;28;20044;-63
2022/05/25 05:32:05;;;;;;;33.55;20.95;;;11.10;99.90;;;;;;5091482;28;20032;-63
2022/05/25 05:34:31;;;;;;;33.63;21.50;;;11.20;99.90;;;;;;5091981;28;20667;-64
2022/05/25 05:37:17;;;;;;;32.03;18.92;;;11.30;99.90;;;;;;5077878;28;20260;-63
2022/05/25 05:39:47;;;;;;;28.13;19.13;;;11.40;99.90;;;;;;5081389;28;20135;-64
2022/05/25 05:42:15;;;;;;;31.15;21.00;;;11.40;99.90;;;;;;5089735;28;20040;-63
2022/05/25 05:44:47;;;;;;;30.88;19.33;;;11.50;99.90;;;;;;5070172;28;20044;-63
2022/05/25 05:47:17;;;;;;;35.05;21.30;;;11.60;99.90;;;;;;5087996;28;20093;-63
2022/05/25 05:49:43;;;;;;;35.75;20.13;;;11.70;99.90;;;;;;5070927;28;20098;-63
2022/05/25 05:52:09;;;;;;;36.40;22.15;;;11.70;99.90;;;;;;5068833;28;20555;-64
2022/05/25 05:54:36;;;;;;;33.35;20.45;;;11.80;99.90;;;;;;5079113;28;20130;-67
2022/05/25 05:57:02;;;;;;;39.40;23.02;;;11.90;99.90;;;;;;5090674;28;20047;-66
2022/05/25 05:59:27;;;;;;;34.25;21.00;;;11.90;99.90;;;;;;5084940;28;20044;-66
2022/05/25 06:01:53;;;;;;;34.83;21.63;;;12.00;99.90;;;;;;5082189;28;20100;-65
2022/05/25 06:04:19;;;;;;;32.45;22.35;;;12.10;99.90;;;;;;5091234;28;20040;-69
2022/05/25 06:06:44;;;;;;;35.65;21.25;;;12.20;99.90;;;;;;5089986;28;20109;-66
2022/05/25 06:09:10;;;;;;;33.25;21.63;;;12.20;99.90;;;;;;5082072;28;20036;-66
2022/05/25 06:11:41;;;;;;;35.83;21.65;;;12.30;99.90;;;;;;5089093;28;20110;-65
2022/05/25 06:14:07;;;;;;;36.03;22.17;;;12.40;99.90;;;;;;5079872;28;20048;-63
2022/05/25 06:19:26;;;;;;;32.08;21.15;;;12.50;99.90;;;;;;5075975;28;20048;-64
2022/05/25 06:22:00;;;;;;;31.55;19.83;;;12.60;99.90;;;;;;5088764;28;20070;-65
2022/05/25 06:24:28;;;;;;;31.80;20.77;;;12.60;99.90;;;;;;5086812;28;20043;-63
2022/05/25 06:26:54;;;;;;;35.55;20.92;;;12.70;99.90;;;;;;5089051;28;20042;-62
2022/05/25 06:29:21;;;;;;;32.20;20.58;;;12.80;99.90;;;;;;5090455;28;20036;-64
2022/05/25 06:31:48;;;;;;;35.55;21.55;;;12.80;99.90;;;;;;5077845;28;20480;-64
2022/05/25 06:34:14;;;;;;;37.50;20.02;;;12.90;99.90;;;;;;5070780;28;20036;-65
2022/05/25 06:36:40;;;;;;;30.98;21.42;;;13.00;99.90;;;;;;5082419;28;20082;-64
2022/05/25 06:39:05;;;;;;;32.92;22.67;;;13.10;99.90;;;;;;5087430;28;20082;-62
2022/05/25 06:41:31;;;;;;;30.45;19.13;;;13.10;99.90;;;;;;5085809;28;20041;-67
2022/05/25 06:43:57;;;;;;;30.10;19.13;;;13.20;99.90;;;;;;5091141;28;20131;-64
2022/05/25 06:46:23;;;;;;;34.17;20.20;;;13.20;99.90;;;;;;5091458;28;20093;-64
2022/05/25 06:48:52;;;;;;;28.27;18.35;;;13.40;99.90;;;;;;5083596;28;20040;-63
2022/05/25 06:51:20;;;;;;;32.28;19.05;;;13.40;99.90;;;;;;5073880;28;20040;-64
2022/05/25 06:53:45;;;;;;;34.45;19.08;;;13.50;99.90;;;;;;5094664;28;20468;-64
2022/05/25 06:56:11;;;;;;;30.65;17.80;;;13.50;99.90;;;;;;5094695;28;20073;-63
2022/05/25 06:58:36;;;;;;;26.27;16.15;;;13.60;99.90;;;;;;5090166;28;20491;-63
2022/05/25 07:01:03;;;;;;;24.40;16.83;;;13.60;99.90;;;;;;5079285;28;20040;-63
2022/05/25 07:03:30;;;;;;;22.55;15.25;;;13.70;99.90;;;;;;5091378;28;20124;-64
2022/05/25 07:05:55;;;;;;;26.40;16.10;;;13.70;99.90;;;;;;5088746;28;20043;-64
2022/05/25 07:08:21;;;;;;;21.45;13.60;;;13.80;99.90;;;;;;5089091;28;20121;-63
2022/05/25 07:10:47;;;;;;;20.42;13.05;;;13.80;99.90;;;;;;5093626;28;20036;-64
2022/05/25 07:13:13;;;;;;;24.00;14.68;;;13.80;99.90;;;;;;5086057;28;20036;-63
2022/05/25 07:15:39;;;;;;;20.52;13.02;;;13.90;99.90;;;;;;5078696;28;20051;-63
2022/05/25 07:18:05;;;;;;;23.00;14.93;;;14.10;99.90;;;;;;5091658;28;20028;-63
2022/05/25 07:20:31;;;;;;;22.17;14.18;;;14.20;99.90;;;;;;5079380;28;20063;-63
2022/05/25 07:22:56;;;;;;;22.10;13.15;;;14.20;99.90;;;;;;5082550;28;20128;-63
2022/05/25 07:25:22;;;;;;;24.35;13.35;;;14.30;99.90;;;;;;5069466;28;20041;-64
2022/05/25 07:27:48;;;;;;;19.02;12.20;;;14.40;99.90;;;;;;5092606;28;20046;-63
2022/05/25 07:30:16;;;;;;;16.38;12.25;;;14.50;99.90;;;;;;5093454;28;20488;-63
2022/05/25 07:32:42;;;;;;;18.70;13.18;;;14.40;99.90;;;;;;5072237;28;20537;-63
2022/05/25 07:35:09;;;;;;;20.88;13.15;;;14.50;99.90;;;;;;5088228;28;20438;-63
2022/05/25 07:37:38;;;;;;;22.17;13.48;;;14.50;99.90;;;;;;5085548;28;20043;-63
2022/05/25 07:40:21;;;;;;;17.40;11.75;;;14.70;99.90;;;;;;5082661;28;20475;-63
2022/05/25 07:42:50;;;;;;;13.98;10.70;;;14.80;99.90;;;;;;5086630;28;20097;-64
2022/05/25 07:45:16;;;;;;;15.35;11.00;;;14.80;99.90;;;;;;5093690;28;20101;-64
2022/05/25 07:47:42;;;;;;;16.40;10.27;;;14.80;99.90;;;;;;5090215;28;20442;-63
2022/05/25 07:50:08;;;;;;;16.65;10.52;;;14.90;99.90;;;;;;5080112;28;20459;-64
2022/05/25 07:52:38;;;;;;;15.75;9.25;;;15.00;99.90;;;;;;5092673;28;20067;-63
2022/05/25 07:55:05;;;;;;;14.30;8.97;;;15.00;99.90;;;;;;5091132;28;20073;-63
2022/05/25 07:57:31;;;;;;;15.95;9.93;;;15.10;99.90;;;;;;5086923;28;20128;-63
2022/05/25 07:59:56;;;;;;;16.15;10.20;;;15.00;99.90;;;;;;5088020;28;20119;-63
2022/05/25 08:08:01;;;;;;;15.20;10.30;;;15.00;99.90;;;;;;5079818;28;20044;-63
2022/05/25 08:10:27;;;;;;;11.70;9.60;;;14.80;99.90;;;;;;5089723;28;20112;-63
2022/05/25 08:12:55;;;;;;;13.05;10.13;;;14.80;99.90;;;;;;5086690;28;20044;-63
2022/05/25 08:15:22;;;;;;;13.85;8.85;;;15.00;99.90;;;;;;5082871;28;20032;-63
2022/05/25 08:17:48;;;;;;;11.05;8.73;;;15.20;99.90;;;;;;5093000;28;20055;-64
2022/05/25 08:20:14;;;;;;;13.05;10.57;;;15.40;99.90;;;;;;5093081;28;20044;-64
2022/05/25 08:22:40;;;;;;;11.32;9.65;;;15.50;99.90;;;;;;5083178;28;20119;-64
2022/05/25 08:25:08;;;;;;;13.73;9.63;;;15.30;99.90;;;;;;5093007;28;20391;-63
2022/05/25 08:27:36;;;;;;;14.68;10.70;;;15.40;99.90;;;;;;5093126;28;20036;-63
2022/05/25 08:30:02;;;;;;;14.43;11.30;;;15.50;99.90;;;;;;5083199;28;20052;-63
2022/05/25 08:32:27;;;;;;;13.50;9.82;;;15.80;99.90;;;;;;5090659;28;20044;-63
2022/05/25 08:34:53;;;;;;;12.30;9.60;;;16.00;99.90;;;;;;5093366;28;20059;-63
2022/05/25 08:37:19;;;;;;;12.43;9.35;;;16.10;99.90;;;;;;5092762;28;20123;-63
2022/05/25 08:39:45;;;;;;;12.73;9.95;;;16.10;99.90;;;;;;5077502;28;20051;-63
2022/05/25 08:42:17;;;;;;;15.32;10.15;;;16.10;99.90;;;;;;5077151;28;20033;-63
2022/05/25 08:44:44;;;;;;;14.88;9.27;;;16.30;99.90;;;;;;5084788;28;20079;-63
2022/05/25 08:47:12;;;;;;;11.85;7.60;;;16.40;99.90;;;;;;5079425;28;20514;-63
2022/05/25 08:49:42;;;;;;;9.82;8.20;;;16.40;99.90;;;;;;5085761;28;20043;-63
2022/05/25 08:52:22;;;;;;;11.65;9.05;;;16.30;99.90;;;;;;5092166;28;20490;-63
2022/05/25 08:54:48;;;;;;;13.73;9.53;;;16.30;99.90;;;;;;5083281;28;20115;-63
2022/05/25 08:57:21;;;;;;;14.63;10.50;;;16.40;99.90;;;;;;5092170;28;20411;-63
2022/05/25 08:59:59;;;;;;;11.38;9.55;;;16.60;99.90;;;;;;5092073;28;20040;-63
2022/05/25 09:02:38;;;;;;;13.80;11.98;;;16.70;99.90;;;;;;5084835;28;20460;-63
2022/05/25 09:05:36;;;;;;;14.55;10.73;;;16.80;99.90;;;;;;5088132;28;20064;-64
2022/05/25 09:08:08;;;;;;;10.90;9.32;;;16.90;99.90;;;;;;5090816;28;20048;-63
2022/05/25 09:10:36;;;;;;;;;;;17.00;99.90;;;;;;5092069;28;20032;-63
2022/05/25 09:13:18;;;;;;;9.73;8.07;;;17.00;99.90;;;;;;5087606;28;19916;-63
2022/05/25 09:18:39;;;;;;;13.43;9.63;;;16.90;99.90;;;;;;5091785;28;20076;-63
2022/05/25 09:21:06;;;;;;;13.98;9.80;;;16.90;99.90;;;;;;5077724;28;20036;-63
2022/05/25 09:23:33;;;;;;;12.10;8.40;;;17.00;99.90;;;;;;5090848;28;20487;-63
2022/05/25 09:25:59;;;;;;;11.63;9.60;;;16.90;99.90;;;;;;5084799;28;20566;-63
2022/05/25 09:28:36;;;;;;;11.25;9.63;;;16.80;99.90;;;;;;5078017;28;20161;-63
2022/05/25 09:31:03;;;;;;;11.52;9.60;;;16.90;99.90;;;;;;5091776;28;20063;-63
2022/05/25 09:33:40;;;;;;;12.02;8.93;;;17.00;99.90;;;;;;5091701;28;20461;-63
2022/05/25 09:36:20;;;;;;;13.82;10.23;;;17.10;99.90;;;;;;5074763;28;20028;-63
2022/05/25 09:39:01;;;;;;;10.73;8.80;;;17.40;99.90;;;;;;5085485;28;20047;-63
2022/05/25 09:41:31;;;;;;;8.93;6.57;;;17.50;99.90;;;;;;5078198;28;20079;-63
2022/05/25 09:43:58;;;;;;;9.27;7.18;;;17.40;99.90;;;;;;5085034;28;20146;-63
2022/05/25 09:46:37;;;;;;;8.30;7.05;;;17.60;99.90;;;;;;5089259;28;20044;-63
2022/05/25 09:49:07;;;;;;;9.13;6.53;;;17.70;99.90;;;;;;5083272;28;20402;-63
2022/05/25 09:51:46;;;;;;;7.72;6.40;;;17.70;99.90;;;;;;5075263;28;20134;-63
2022/05/25 09:54:26;;;;;;;8.52;7.07;;;17.90;99.90;;;;;;5073779;28;20044;-63
2022/05/25 09:57:06;;;;;;;7.82;5.75;;;17.80;99.90;;;;;;5082556;28;20061;-63
2022/05/25 09:59:55;;;;;;;9.30;6.20;;;17.80;99.90;;;;;;5090898;28;20040;-63
2022/05/25 10:02:30;;;;;;;9.43;7.25;;;17.80;99.90;;;;;;5075185;28;20038;-64
2022/05/25 10:05:16;;;;;;;9.50;7.65;;;17.70;99.90;;;;;;5081895;28;20086;-63
2022/05/25 10:08:04;;;;;;;7.07;6.38;;;18.10;99.90;;;;;;5080134;28;20071;-63
2022/05/25 10:10:34;;;;;;;7.38;6.20;;;18.20;99.90;;;;;;5069932;28;20123;-63
2022/05/25 10:13:27;;;;;;;8.43;6.38;;;18.20;99.90;;;;;;5090481;28;20150;-63
2022/05/25 10:15:53;;;;;;;10.68;6.95;;;17.90;99.90;;;;;;5086515;28;20067;-63
2022/05/25 10:18:42;;;;;;;7.55;6.75;;;17.90;99.90;;;;;;5091291;28;20430;-63
2022/05/25 10:21:20;;;;;;;7.93;6.40;;;18.50;99.90;;;;;;5076910;28;20048;-63
2022/05/25 10:23:45;;;;;;;7.10;5.78;;;18.90;99.90;;;;;;5076156;28;20685;-63
2022/05/25 10:26:15;;;;;;;7.90;7.13;;;19.10;99.90;;;;;;5087607;28;20032;-63
2022/05/25 10:29:08;;;;;;;8.93;6.95;;;18.60;99.90;;;;;;5083871;28;20024;-63
2022/05/25 10:37:39;;;;;;;9.52;6.53;;;17.00;99.90;;;;;;5091434;28;20555;-63
2022/05/25 10:40:06;;;;;;;;;;;16.60;99.90;;;;;;5094368;28;20028;-63
2022/05/25 10:42:44;;;;;;;10.43;7.25;;;16.20;99.90;;;;;;5088365;28;20479;-63
2022/05/25 10:45:21;;;;;;;11.23;6.68;;;16.00;99.90;;;;;;5093319;28;20044;-63
2022/05/25 10:47:50;;;;;;;11.68;7.78;;;16.00;99.90;;;;;;5093717;28;20639;-63
2022/05/25 10:50:46;;;;;;;11.73;8.23;;;16.00;99.90;;;;;;5094471;28;20442;-63
2022/05/25 10:53:39;;;;;;;9.90;8.90;;;16.10;99.90;;;;;;5086656;28;20068;-63
2022/05/25 10:56:11;;;;;;;10.23;9.00;;;16.40;99.90;;;;;;5094224;28;20172;-63
2022/05/25 10:58:59;;;;;;;11.25;9.93;;;16.80;99.90;;;;;;5094476;28;20062;-62
2022/05/25 11:01:46;;;;;;;9.68;8.65;;;17.30;99.90;;;;;;5083500;28;20072;-63
2022/05/25 11:04:21;;;;;;;8.95;7.60;;;17.70;99.90;;;;;;5079400;28;20040;-64
2022/05/25 11:06:58;;;;;;;8.93;8.00;;;17.90;99.90;;;;;;5087442;28;20036;-64
2022/05/25 11:10:01;;;;;;;11.45;7.97;;;18.10;99.90;;;;;;5094010;28;20056;-65
2022/05/25 11:13:05;;;;;;;11.73;8.68;;;18.30;99.90;;;;;;5085236;28;20074;-64
2022/05/25 11:15:52;;;;;;;11.95;8.90;;;18.60;99.90;;;;;;5041483;28;20087;-64
2022/05/25 11:18:29;;;;;;;10.00;8.35;;;18.80;99.90;;;;;;5090360;28;20044;-64
2022/05/25 11:20:58;;;;;;;11.05;9.15;;;18.50;99.90;;;;;;5086566;28;20118;-64
2022/05/25 11:23:41;;;;;;;12.98;9.10;;;18.50;99.90;;;;;;5089746;28;20059;-64
2022/05/25 11:26:09;;;;;;;10.57;8.70;;;18.50;99.90;;;;;;5086136;28;20044;-64
2022/05/25 11:29:00;;;;;;;9.85;8.85;;;18.50;99.90;;;;;;5089961;28;20063;-64
2022/05/25 11:31:30;;;;;;;11.05;8.10;;;18.60;99.90;;;;;;5090605;28;20036;-64
2022/05/25 11:34:12;;;;;;;15.02;9.20;;;18.60;99.90;;;;;;5079743;28;20083;-64
2022/05/25 11:36:44;;;;;;;12.52;8.77;;;18.40;99.90;;;;;;5084344;28;20480;-64
2022/05/25 11:39:28;;;;;;;10.23;8.75;;;18.30;99.90;;;;;;5104434;28;20410;-67
2022/05/25 11:42:13;;;;;;;9.38;7.97;;;18.40;99.90;;;;;;5109186;28;20046;-64
2022/05/25 11:44:57;;;;;;;11.43;7.68;;;18.80;99.60;;;;;;5089164;28;20050;-64
2022/05/25 11:47:28;;;;;;;11.18;9.60;;;19.00;98.70;;;;;;5095556;28;20555;-64
2022/05/25 11:50:18;;;;;;;11.95;9.00;;;18.90;99.90;;;;;;5084349;28;20123;-64
2022/05/25 11:53:20;;;;;;;11.73;9.07;;;18.90;99.90;;;;;;5085576;28;20052;-64
2022/05/25 11:55:52;;;;;;;11.98;7.88;;;18.80;99.90;;;;;;5073879;28;20128;-64
2022/05/25 11:58:33;;;;;;;9.52;7.13;;;19.00;99.90;;;;;;5073879;28;20527;-64
2022/05/25 12:01:24;;;;;;;11.73;7.22;;;18.50;96.40;;;;;;5090353;28;20052;-64
2022/05/25 12:04:05;;;;;;;10.70;6.93;;;18.10;99.10;;;;;;5103601;28;20092;-64
2022/05/25 12:06:48;;;;;;;14.82;8.05;;;18.00;97.90;;;;;;5098943;28;20045;-64
2022/05/25 12:09:38;;;;;;;10.50;7.75;;;17.80;97.60;;;;;;5096034;28;20538;-64
2022/05/25 12:12:17;;;;;;;9.07;7.38;;;17.80;99.30;;;;;;5091587;28;20043;-64
2022/05/25 12:15:04;;;;;;;10.10;7.70;;;17.80;99.50;;;;;;5091585;28;20560;-63
2022/05/25 12:17:54;;;;;;;11.27;8.60;;;17.70;98.20;;;;;;5083408;28;20140;-63
2022/05/25 12:20:34;;;;;;;10.38;9.27;;;17.60;99.70;;;;;;5091233;28;20044;-64
2022/05/25 12:23:06;;;;;;;9.95;8.25;;;17.60;99.90;;;;;;5083218;28;20037;-64
2022/05/25 12:25:35;;;;;;;13.52;8.95;;;17.50;99.90;;;;;;5076306;28;20048;-64
2022/05/25 12:28:03;;;;;;;11.95;9.30;;;17.40;99.90;;;;;;5093502;28;20118;-64
2022/05/25 12:30:32;;;;;;;15.23;9.80;;;17.50;99.90;;;;;;5093280;28;20232;-64
2022/05/25 12:33:03;;;;;;;11.43;9.77;;;17.30;99.90;;;;;;5084252;28;20392;-64
2022/05/25 12:35:31;;;;;;;10.00;8.90;;;17.30;99.90;;;;;;5087894;28;20059;-63
2022/05/25 12:37:59;;;;;;;8.75;7.85;;;17.30;99.90;;;;;;5092229;28;20039;-64
2022/05/25 12:40:31;;;;;;;10.00;7.65;;;17.30;99.90;;;;;;5087862;28;20507;-64
2022/05/25 12:42:57;;;;;;;10.88;8.63;;;17.30;99.90;;;;;;5088447;28;20411;-63
2022/05/25 12:48:38;;;;;;;10.57;7.53;;;17.60;99.90;;;;;;5092152;28;20075;-65
2022/05/25 12:51:26;;;;;;;8.75;7.07;;;18.00;99.90;;;;;;5105105;28;20048;-65
2022/05/25 12:53:54;;;;;;;10.05;6.43;;;18.50;99.90;;;;;;5084331;28;20036;-65
2022/05/25 12:56:20;;;;;;;11.23;6.50;;;18.80;99.90;;;;;;5066266;28;20036;-65
2022/05/25 12:58:51;;;;;;;6.82;5.85;;;18.90;99.90;;;;;;5077601;28;20067;-65
2022/05/25 13:01:23;;;;;;;8.10;5.65;;;19.10;99.90;;;;;;5087450;28;20040;-65
2022/05/25 13:03:48;;;;;;;7.10;5.63;;;19.20;99.20;;;;;;5093307;28;20032;-71
2022/05/25 13:06:35;;;;;;;9.10;5.18;;;19.10;99.40;;;;;;5093189;28;20488;-65
2022/05/25 13:09:30;;;;;;;7.20;4.75;;;19.30;99.90;;;;;;5076343;28;20043;-64
2022/05/25 13:11:55;;;;;;;10.63;4.75;;;19.30;98.40;;;;;;5092557;28;20063;-64
2022/05/25 13:14:22;;;;;;;6.60;3.38;;;19.30;99.50;;;;;;5072922;28;20543;-65
2022/05/25 13:16:51;;;;;;;8.25;3.38;;;19.50;97.20;;;;;;5084768;28;20649;-65
2022/05/25 13:19:31;;;;;;;4.68;2.20;;;19.60;98.30;;;;;;5091757;28;20396;-65
2022/05/25 13:22:02;;;;;;;5.07;2.20;;;19.70;95.70;;;;;;5078973;28;20400;-65
2022/05/25 13:24:41;;;;;;;3.85;2.17;;;19.70;97.00;;;;;;5086958;28;20048;-65